Mistelbach, Austria
Current Conditions -  °F | °C
As of 12:50 PM on Friday 24 Oct 2014 (Local Time) from LOXT Reporting Station
Broken Clouds Broken Clouds  
Wind Chill: 52°   Ceiling: 2600
Heat Index: 52°   Visibility: 13mi
Dew Point: 43°   Wind: 8mph
Humidity: 71%   Direction: 330°NNW
Pressure: 30.15"   Gusts: NA
Location:  48.57°N, 16.57°E
Report Text: LOXT 241050Z 33007KT 20KM BKN026SC 11/06 Q1021 NOSIG RMK BKN
Loading
Personal Weather Stations






























Interactive Weather Map
Tropical Storm Tracking
New forecast layout! Learn more

10-Day Weather Forecast

Advertisements
Track Severe Weather on mobile